sensor_id;sensor_type;location;lat;lon;timestamp;temperature;humidity
18805;DHT22;9530;48.930;9.526;2023-02-01T00:00:11;4.50;99.90
18805;DHT22;9530;48.930;9.526;2023-02-01T00:02:38;4.50;99.90
18805;DHT22;9530;48.930;9.526;2023-02-01T00:05:07;4.60;99.90
18805;DHT22;9530;48.930;9.526;2023-02-01T00:07:33;4.60;99.90
18805;DHT22;9530;48.930;9.526;2023-02-01T00:10:00;4.60;99.90
18805;DHT22;9530;48.930;9.526;2023-02-01T00:12:29;4.60;99.90
18805;DHT22;9530;48.930;9.526;2023-02-01T00:14:55;4.60;99.90
18805;DHT22;9530;48.930;9.526;2023-02-01T00:17:23;4.60;99.90
18805;DHT22;9530;48.930;9.526;2023-02-01T00:19:50;4.50;99.90
18805;DHT22;9530;48.930;9.526;2023-02-01T00:22:17;4.60;99.90
18805;DHT22;9530;48.930;9.526;2023-02-01T00:24:44;4.50;99.90
18805;DHT22;9530;48.930;9.526;2023-02-01T00:27:10;4.50;99.90
18805;DHT22;9530;48.930;9.526;2023-02-01T00:29:43;4.60;99.90
18805;DHT22;9530;48.930;9.526;2023-02-01T00:32:09;4.50;99.90
18805;DHT22;9530;48.930;9.526;2023-02-01T00:34:38;4.60;99.90
18805;DHT22;9530;48.930;9.526;2023-02-01T00:37:04;4.60;99.90
18805;DHT22;9530;48.930;9.526;2023-02-01T00:39:31;4.60;99.90
18805;DHT22;9530;48.930;9.526;2023-02-01T00:41:59;4.60;99.90
18805;DHT22;9530;48.930;9.526;2023-02-01T00:44:26;4.60;99.90
18805;DHT22;9530;48.930;9.526;2023-02-01T00:46:53;4.60;99.90
18805;DHT22;9530;48.930;9.526;2023-02-01T00:49:20;4.60;99.90
18805;DHT22;9530;48.930;9.526;2023-02-01T00:51:48;4.60;99.90
18805;DHT22;9530;48.930;9.526;2023-02-01T00:54:15;4.60;99.90
18805;DHT22;9530;48.930;9.526;2023-02-01T00:56:41;4.60;99.90
18805;DHT22;9530;48.930;9.526;2023-02-01T00:59:10;4.60;99.90
18805;DHT22;9530;48.930;9.526;2023-02-01T01:01:37;4.60;99.90
18805;DHT22;9530;48.930;9.526;2023-02-01T01:04:04;4.60;99.90
18805;DHT22;9530;48.930;9.526;2023-02-01T01:06:32;4.50;99.90
18805;DHT22;9530;48.930;9.526;2023-02-01T01:09:02;4.50;99.90
18805;DHT22;9530;48.930;9.526;2023-02-01T01:11:31;4.50;99.90
18805;DHT22;9530;48.930;9.526;2023-02-01T01:13:59;4.50;99.90
18805;DHT22;9530;48.930;9.526;2023-02-01T01:16:28;4.50;99.90
18805;DHT22;9530;48.930;9.526;2023-02-01T01:18:56;4.40;99.90
18805;DHT22;9530;48.930;9.526;2023-02-01T01:21:23;4.50;99.90
18805;DHT22;9530;48.930;9.526;2023-02-01T01:23:50;4.50;99.90
18805;DHT22;9530;48.930;9.526;2023-02-01T01:26:20;4.60;99.90
18805;DHT22;9530;48.930;9.526;2023-02-01T01:28:48;4.50;99.90
18805;DHT22;9530;48.930;9.526;2023-02-01T01:31:16;4.50;99.90
18805;DHT22;9530;48.930;9.526;2023-02-01T01:33:43;4.50;99.90
18805;DHT22;9530;48.930;9.526;2023-02-01T01:36:11;4.50;99.90
18805;DHT22;9530;48.930;9.526;2023-02-01T01:38:38;4.60;99.90
18805;DHT22;9530;48.930;9.526;2023-02-01T01:41:05;4.60;99.90
18805;DHT22;9530;48.930;9.526;2023-02-01T01:43:49;4.50;99.90
18805;DHT22;9530;48.930;9.526;2023-02-01T01:46:18;4.60;99.90
18805;DHT22;9530;48.930;9.526;2023-02-01T01:48:46;4.60;99.90
18805;DHT22;9530;48.930;9.526;2023-02-01T01:51:16;4.60;99.90
18805;DHT22;9530;48.930;9.526;2023-02-01T01:53:46;4.60;99.90
18805;DHT22;9530;48.930;9.526;2023-02-01T01:56:14;4.60;99.90
18805;DHT22;9530;48.930;9.526;2023-02-01T01:58:41;4.60;99.90
18805;DHT22;9530;48.930;9.526;2023-02-01T02:01:10;4.70;99.90
18805;DHT22;9530;48.930;9.526;2023-02-01T02:03:39;4.60;99.90
18805;DHT22;9530;48.930;9.526;2023-02-01T02:06:12;4.70;99.90
18805;DHT22;9530;48.930;9.526;2023-02-01T02:08:41;4.70;99.90
18805;DHT22;9530;48.930;9.526;2023-02-01T02:11:08;4.70;99.90
18805;DHT22;9530;48.930;9.526;2023-02-01T02:13:38;4.60;99.90
18805;DHT22;9530;48.930;9.526;2023-02-01T02:16:26;4.70;99.90
18805;DHT22;9530;48.930;9.526;2023-02-01T02:19:04;4.70;99.90
18805;DHT22;9530;48.930;9.526;2023-02-01T02:21:43;4.70;99.90
18805;DHT22;9530;48.930;9.526;2023-02-01T02:24:38;4.70;99.90
18805;DHT22;9530;48.930;9.526;2023-02-01T02:27:16;4.70;99.90
18805;DHT22;9530;48.930;9.526;2023-02-01T02:30:11;4.70;99.90
18805;DHT22;9530;48.930;9.526;2023-02-01T02:36:01;4.80;99.90
18805;DHT22;9530;48.930;9.526;2023-02-01T02:38:33;4.80;99.90
18805;DHT22;9530;48.930;9.526;2023-02-01T02:41:19;4.80;99.90
18805;DHT22;9530;48.930;9.526;2023-02-01T02:44:08;4.80;99.90
18805;DHT22;9530;48.930;9.526;2023-02-01T02:46:57;4.80;99.90
18805;DHT22;9530;48.930;9.526;2023-02-01T02:49:49;4.80;99.90
18805;DHT22;9530;48.930;9.526;2023-02-01T02:52:54;4.80;99.90
18805;DHT22;9530;48.930;9.526;2023-02-01T02:55:40;4.80;99.90
18805;DHT22;9530;48.930;9.526;2023-02-01T02:58:08;4.70;99.90
18805;DHT22;9530;48.930;9.526;2023-02-01T03:00:55;4.70;99.90
18805;DHT22;9530;48.930;9.526;2023-02-01T03:03:40;4.80;99.90
18805;DHT22;9530;48.930;9.526;2023-02-01T03:06:24;4.80;99.90
18805;DHT22;9530;48.930;9.526;2023-02-01T03:08:55;4.70;99.90
18805;DHT22;9530;48.930;9.526;2023-02-01T03:11:24;4.70;99.90
18805;DHT22;9530;48.930;9.526;2023-02-01T03:14:13;4.80;99.90
18805;DHT22;9530;48.930;9.526;2023-02-01T03:16:43;4.70;99.90
18805;DHT22;9530;48.930;9.526;2023-02-01T03:19:14;4.80;99.90
18805;DHT22;9530;48.930;9.526;2023-02-01T03:21:45;4.80;99.90
18805;DHT22;9530;48.930;9.526;2023-02-01T03:24:17;4.80;99.90
18805;DHT22;9530;48.930;9.526;2023-02-01T03:26:48;4.80;99.90
18805;DHT22;9530;48.930;9.526;2023-02-01T03:29:20;4.70;99.90
18805;DHT22;9530;48.930;9.526;2023-02-01T03:31:48;4.80;99.90
18805;DHT22;9530;48.930;9.526;2023-02-01T03:34:15;4.80;99.90
18805;DHT22;9530;48.930;9.526;2023-02-01T03:36:47;4.80;99.90
18805;DHT22;9530;48.930;9.526;2023-02-01T03:39:21;4.70;99.90
18805;DHT22;9530;48.930;9.526;2023-02-01T03:41:51;4.70;99.90
18805;DHT22;9530;48.930;9.526;2023-02-01T03:44:21;4.80;99.90
18805;DHT22;9530;48.930;9.526;2023-02-01T03:46:52;4.80;99.90
18805;DHT22;9530;48.930;9.526;2023-02-01T03:49:23;4.80;99.90
18805;DHT22;9530;48.930;9.526;2023-02-01T03:51:51;4.70;99.90
18805;DHT22;9530;48.930;9.526;2023-02-01T03:54:20;4.80;99.90
18805;DHT22;9530;48.930;9.526;2023-02-01T03:56:48;4.70;99.90
18805;DHT22;9530;48.930;9.526;2023-02-01T03:59:17;4.80;99.90
18805;DHT22;9530;48.930;9.526;2023-02-01T04:01:43;4.80;99.90
18805;DHT22;9530;48.930;9.526;2023-02-01T04:04:11;4.70;99.90
18805;DHT22;9530;48.930;9.526;2023-02-01T04:06:45;4.80;99.90
18805;DHT22;9530;48.930;9.526;2023-02-01T04:09:11;4.90;99.90
18805;DHT22;9530;48.930;9.526;2023-02-01T04:11:39;4.90;99.90
18805;DHT22;9530;48.930;9.526;2023-02-01T04:14:06;4.80;99.90
18805;DHT22;9530;48.930;9.526;2023-02-01T04:16:33;4.80;99.90
18805;DHT22;9530;48.930;9.526;2023-02-01T04:19:00;4.80;99.90
18805;DHT22;9530;48.930;9.526;2023-02-01T04:21:27;4.80;99.90
18805;DHT22;9530;48.930;9.526;2023-02-01T04:23:54;4.80;99.90
18805;DHT22;9530;48.930;9.526;2023-02-01T04:26:21;4.70;99.90
18805;DHT22;9530;48.930;9.526;2023-02-01T04:28:49;4.80;99.90
18805;DHT22;9530;48.930;9.526;2023-02-01T04:31:16;4.80;99.90
18805;DHT22;9530;48.930;9.526;2023-02-01T04:33:50;4.80;99.90
18805;DHT22;9530;48.930;9.526;2023-02-01T04:36:17;4.80;99.90
18805;DHT22;9530;48.930;9.526;2023-02-01T04:38:45;4.80;99.90
18805;DHT22;9530;48.930;9.526;2023-02-01T04:41:11;4.80;99.90
18805;DHT22;9530;48.930;9.526;2023-02-01T04:43:38;4.80;99.90
18805;DHT22;9530;48.930;9.526;2023-02-01T04:46:06;4.90;99.90
18805;DHT22;9530;48.930;9.526;2023-02-01T04:48:33;4.80;99.90
18805;DHT22;9530;48.930;9.526;2023-02-01T04:50:59;4.90;99.90
18805;DHT22;9530;48.930;9.526;2023-02-01T04:53:26;4.90;99.90
18805;DHT22;9530;48.930;9.526;2023-02-01T04:55:53;4.90;99.90
18805;DHT22;9530;48.930;9.526;2023-02-01T04:58:20;4.90;99.90
18805;DHT22;9530;48.930;9.526;2023-02-01T05:00:47;4.90;99.90
18805;DHT22;9530;48.930;9.526;2023-02-01T05:03:16;4.90;99.90
18805;DHT22;9530;48.930;9.526;2023-02-01T05:05:42;4.90;99.90
18805;DHT22;9530;48.930;9.526;2023-02-01T05:08:09;4.90;99.90
18805;DHT22;9530;48.930;9.526;2023-02-01T05:10:36;4.90;99.90
18805;DHT22;9530;48.930;9.526;2023-02-01T05:13:02;4.90;99.90
18805;DHT22;9530;48.930;9.526;2023-02-01T05:15:47;4.90;99.90
18805;DHT22;9530;48.930;9.526;2023-02-01T05:18:13;4.90;99.90
18805;DHT22;9530;48.930;9.526;2023-02-01T05:20:41;4.90;99.90
18805;DHT22;9530;48.930;9.526;2023-02-01T05:23:08;4.90;99.90
18805;DHT22;9530;48.930;9.526;2023-02-01T05:25:35;4.90;99.90
18805;DHT22;9530;48.930;9.526;2023-02-01T05:28:02;4.90;99.90
18805;DHT22;9530;48.930;9.526;2023-02-01T05:30:28;4.90;99.90
18805;DHT22;9530;48.930;9.526;2023-02-01T05:32:55;4.90;99.90
18805;DHT22;9530;48.930;9.526;2023-02-01T05:35:22;4.80;99.90
18805;DHT22;9530;48.930;9.526;2023-02-01T05:37:49;4.90;99.90
18805;DHT22;9530;48.930;9.526;2023-02-01T05:40:16;4.90;99.90
18805;DHT22;9530;48.930;9.526;2023-02-01T05:42:43;4.90;99.90
18805;DHT22;9530;48.930;9.526;2023-02-01T05:45:10;4.90;99.90
18805;DHT22;9530;48.930;9.526;2023-02-01T05:47:37;4.90;99.90
18805;DHT22;9530;48.930;9.526;2023-02-01T05:50:05;4.90;99.90
18805;DHT22;9530;48.930;9.526;2023-02-01T05:52:32;4.90;99.90
18805;DHT22;9530;48.930;9.526;2023-02-01T05:55:00;4.90;99.90
18805;DHT22;9530;48.930;9.526;2023-02-01T05:57:26;4.90;99.90
18805;DHT22;9530;48.930;9.526;2023-02-01T05:59:53;4.90;99.90
18805;DHT22;9530;48.930;9.526;2023-02-01T06:02:20;4.90;99.90
18805;DHT22;9530;48.930;9.526;2023-02-01T06:04:49;4.90;99.90
18805;DHT22;9530;48.930;9.526;2023-02-01T06:07:16;4.90;99.90
18805;DHT22;9530;48.930;9.526;2023-02-01T06:09:43;4.90;99.90
18805;DHT22;9530;48.930;9.526;2023-02-01T06:12:10;4.90;99.90
18805;DHT22;9530;48.930;9.526;2023-02-01T06:14:37;4.90;99.90
18805;DHT22;9530;48.930;9.526;2023-02-01T06:17:04;4.90;99.90
18805;DHT22;9530;48.930;9.526;2023-02-01T06:19:32;4.90;99.90
18805;DHT22;9530;48.930;9.526;2023-02-01T06:21:59;4.90;99.90
18805;DHT22;9530;48.930;9.526;2023-02-01T06:24:25;4.90;99.90
18805;DHT22;9530;48.930;9.526;2023-02-01T06:26:52;4.90;99.90
18805;DHT22;9530;48.930;9.526;2023-02-01T06:29:20;5.00;99.90
18805;DHT22;9530;48.930;9.526;2023-02-01T06:31:46;5.00;99.90
18805;DHT22;9530;48.930;9.526;2023-02-01T06:34:13;4.90;99.90
18805;DHT22;9530;48.930;9.526;2023-02-01T06:36:40;5.00;99.90
18805;DHT22;9530;48.930;9.526;2023-02-01T06:39:06;5.00;99.90
18805;DHT22;9530;48.930;9.526;2023-02-01T06:41:33;4.90;99.90
18805;DHT22;9530;48.930;9.526;2023-02-01T06:44:00;4.90;99.90
18805;DHT22;9530;48.930;9.526;2023-02-01T06:46:28;4.90;99.90
18805;DHT22;9530;48.930;9.526;2023-02-01T06:48:55;5.00;99.90
18805;DHT22;9530;48.930;9.526;2023-02-01T06:51:23;5.00;99.90
18805;DHT22;9530;48.930;9.526;2023-02-01T06:53:50;5.10;99.90
18805;DHT22;9530;48.930;9.526;2023-02-01T06:56:17;5.00;99.90
18805;DHT22;9530;48.930;9.526;2023-02-01T06:58:44;5.10;99.90
18805;DHT22;9530;48.930;9.526;2023-02-01T07:01:11;5.10;99.90
18805;DHT22;9530;48.930;9.526;2023-02-01T07:03:39;5.20;99.90
18805;DHT22;9530;48.930;9.526;2023-02-01T07:06:07;5.10;99.90
18805;DHT22;9530;48.930;9.526;2023-02-01T07:08:35;5.20;99.90
18805;DHT22;9530;48.930;9.526;2023-02-01T07:11:04;5.10;99.90
18805;DHT22;9530;48.930;9.526;2023-02-01T07:13:31;5.10;99.90
18805;DHT22;9530;48.930;9.526;2023-02-01T07:15:58;5.10;99.90
18805;DHT22;9530;48.930;9.526;2023-02-01T07:18:26;5.10;99.90
18805;DHT22;9530;48.930;9.526;2023-02-01T07:20:54;5.10;99.90
18805;DHT22;9530;48.930;9.526;2023-02-01T07:23:22;5.10;99.90
18805;DHT22;9530;48.930;9.526;2023-02-01T07:25:48;5.10;99.90
18805;DHT22;9530;48.930;9.526;2023-02-01T07:28:15;5.10;99.90
18805;DHT22;9530;48.930;9.526;2023-02-01T07:30:42;5.10;99.90
18805;DHT22;9530;48.930;9.526;2023-02-01T07:33:09;5.10;99.90
18805;DHT22;9530;48.930;9.526;2023-02-01T07:35:35;5.10;99.90
18805;DHT22;9530;48.930;9.526;2023-02-01T07:38:03;5.20;99.90
18805;DHT22;9530;48.930;9.526;2023-02-01T07:40:30;5.20;99.90
18805;DHT22;9530;48.930;9.526;2023-02-01T07:42:57;5.30;99.90
18805;DHT22;9530;48.930;9.526;2023-02-01T07:45:25;5.30;99.90
18805;DHT22;9530;48.930;9.526;2023-02-01T07:47:52;5.30;99.90
18805;DHT22;9530;48.930;9.526;2023-02-01T07:50:18;5.20;99.90
18805;DHT22;9530;48.930;9.526;2023-02-01T07:52:45;5.20;99.90
18805;DHT22;9530;48.930;9.526;2023-02-01T07:55:13;5.20;99.90
18805;DHT22;9530;48.930;9.526;2023-02-01T07:57:40;5.20;99.90
18805;DHT22;9530;48.930;9.526;2023-02-01T08:00:08;5.20;99.90
18805;DHT22;9530;48.930;9.526;2023-02-01T08:02:52;5.20;99.90
18805;DHT22;9530;48.930;9.526;2023-02-01T08:05:19;5.20;99.90
18805;DHT22;9530;48.930;9.526;2023-02-01T08:07:48;5.20;99.90
18805;DHT22;9530;48.930;9.526;2023-02-01T08:10:17;5.20;99.90
18805;DHT22;9530;48.930;9.526;2023-02-01T08:12:44;5.20;99.90
18805;DHT22;9530;48.930;9.526;2023-02-01T08:15:13;5.20;99.90
18805;DHT22;9530;48.930;9.526;2023-02-01T08:17:46;5.10;99.90
18805;DHT22;9530;48.930;9.526;2023-02-01T08:20:13;5.20;99.90
18805;DHT22;9530;48.930;9.526;2023-02-01T08:22:39;5.20;99.90
18805;DHT22;9530;48.930;9.526;2023-02-01T08:25:07;5.30;99.90
18805;DHT22;9530;48.930;9.526;2023-02-01T08:27:35;5.30;99.90
18805;DHT22;9530;48.930;9.526;2023-02-01T08:30:03;5.30;99.90
18805;DHT22;9530;48.930;9.526;2023-02-01T08:32:30;5.30;99.90
18805;DHT22;9530;48.930;9.526;2023-02-01T08:34:57;5.30;99.90
18805;DHT22;9530;48.930;9.526;2023-02-01T08:37:23;5.30;99.90
18805;DHT22;9530;48.930;9.526;2023-02-01T08:39:50;5.30;99.90
18805;DHT22;9530;48.930;9.526;2023-02-01T08:42:17;5.30;99.90
18805;DHT22;9530;48.930;9.526;2023-02-01T08:45:03;5.40;99.90
18805;DHT22;9530;48.930;9.526;2023-02-01T08:47:30;5.50;99.90
18805;DHT22;9530;48.930;9.526;2023-02-01T08:49:57;5.60;99.90
18805;DHT22;9530;48.930;9.526;2023-02-01T08:52:24;5.60;99.90
18805;DHT22;9530;48.930;9.526;2023-02-01T08:54:50;5.70;99.90
18805;DHT22;9530;48.930;9.526;2023-02-01T08:57:17;5.80;99.90
18805;DHT22;9530;48.930;9.526;2023-02-01T08:59:44;5.90;99.90
18805;DHT22;9530;48.930;9.526;2023-02-01T09:02:13;5.90;99.90
18805;DHT22;9530;48.930;9.526;2023-02-01T09:04:40;5.90;99.90
18805;DHT22;9530;48.930;9.526;2023-02-01T09:07:07;5.90;99.90
18805;DHT22;9530;48.930;9.526;2023-02-01T09:09:34;5.90;99.90
18805;DHT22;9530;48.930;9.526;2023-02-01T09:12:02;5.80;99.90
18805;DHT22;9530;48.930;9.526;2023-02-01T09:14:29;5.80;99.90
18805;DHT22;9530;48.930;9.526;2023-02-01T09:16:55;5.80;99.90
18805;DHT22;9530;48.930;9.526;2023-02-01T09:19:23;5.90;99.90
18805;DHT22;9530;48.930;9.526;2023-02-01T09:21:50;5.90;99.90
18805;DHT22;9530;48.930;9.526;2023-02-01T09:24:17;5.90;99.90
18805;DHT22;9530;48.930;9.526;2023-02-01T09:26:43;6.00;99.90
18805;DHT22;9530;48.930;9.526;2023-02-01T09:29:10;6.20;99.90
18805;DHT22;9530;48.930;9.526;2023-02-01T09:31:37;6.30;99.90
18805;DHT22;9530;48.930;9.526;2023-02-01T09:34:04;6.30;99.90
18805;DHT22;9530;48.930;9.526;2023-02-01T09:36:33;6.40;99.90
18805;DHT22;9530;48.930;9.526;2023-02-01T09:39:00;6.50;99.90
18805;DHT22;9530;48.930;9.526;2023-02-01T09:41:35;6.50;99.90
18805;DHT22;9530;48.930;9.526;2023-02-01T09:44:12;6.60;99.90
18805;DHT22;9530;48.930;9.526;2023-02-01T09:46:43;6.60;99.90
18805;DHT22;9530;48.930;9.526;2023-02-01T09:49:13;6.70;99.90
18805;DHT22;9530;48.930;9.526;2023-02-01T09:51:44;6.70;99.90
18805;DHT22;9530;48.930;9.526;2023-02-01T09:54:14;6.60;99.90
18805;DHT22;9530;48.930;9.526;2023-02-01T09:56:46;6.60;99.90
18805;DHT22;9530;48.930;9.526;2023-02-01T09:59:26;6.50;99.90
18805;DHT22;9530;48.930;9.526;2023-02-01T10:01:56;6.40;99.90
18805;DHT22;9530;48.930;9.526;2023-02-01T10:04:24;6.20;99.90
18805;DHT22;9530;48.930;9.526;2023-02-01T10:07:01;6.10;99.90
18805;DHT22;9530;48.930;9.526;2023-02-01T10:09:42;6.20;99.90
18805;DHT22;9530;48.930;9.526;2023-02-01T10:15:22;6.20;99.90
18805;DHT22;9530;48.930;9.526;2023-02-01T10:18:08;6.30;99.90
18805;DHT22;9530;48.930;9.526;2023-02-01T10:20:48;6.30;99.90
18805;DHT22;9530;48.930;9.526;2023-02-01T10:23:32;6.30;99.90
18805;DHT22;9530;48.930;9.526;2023-02-01T10:26:08;6.40;99.90
18805;DHT22;9530;48.930;9.526;2023-02-01T10:28:39;6.40;99.90
18805;DHT22;9530;48.930;9.526;2023-02-01T10:31:09;6.40;99.90
18805;DHT22;9530;48.930;9.526;2023-02-01T10:33:39;6.40;99.90
18805;DHT22;9530;48.930;9.526;2023-02-01T10:36:15;6.50;99.90
18805;DHT22;9530;48.930;9.526;2023-02-01T10:38:45;6.50;99.90
18805;DHT22;9530;48.930;9.526;2023-02-01T10:41:14;6.40;99.90
18805;DHT22;9530;48.930;9.526;2023-02-01T10:43:42;6.50;99.90
18805;DHT22;9530;48.930;9.526;2023-02-01T10:46:09;6.50;99.90
18805;DHT22;9530;48.930;9.526;2023-02-01T10:48:37;6.50;99.90
18805;DHT22;9530;48.930;9.526;2023-02-01T10:51:08;6.60;99.90
18805;DHT22;9530;48.930;9.526;2023-02-01T10:53:42;6.60;99.90
18805;DHT22;9530;48.930;9.526;2023-02-01T10:56:12;6.60;99.90
18805;DHT22;9530;48.930;9.526;2023-02-01T10:58:44;6.60;99.90
18805;DHT22;9530;48.930;9.526;2023-02-01T11:01:16;6.60;99.90
18805;DHT22;9530;48.930;9.526;2023-02-01T11:03:44;6.70;99.90
18805;DHT22;9530;48.930;9.526;2023-02-01T11:06:18;6.60;99.90
18805;DHT22;9530;48.930;9.526;2023-02-01T11:08:47;6.60;99.90
18805;DHT22;9530;48.930;9.526;2023-02-01T11:11:15;6.50;99.90
18805;DHT22;9530;48.930;9.526;2023-02-01T11:13:42;6.40;99.90
18805;DHT22;9530;48.930;9.526;2023-02-01T11:16:12;6.40;99.90
18805;DHT22;9530;48.930;9.526;2023-02-01T11:18:39;6.30;99.90
18805;DHT22;9530;48.930;9.526;2023-02-01T11:21:08;6.30;99.90
18805;DHT22;9530;48.930;9.526;2023-02-01T11:23:40;6.30;99.90
18805;DHT22;9530;48.930;9.526;2023-02-01T11:26:11;6.30;99.90
18805;DHT22;9530;48.930;9.526;2023-02-01T11:28:46;6.40;99.90
18805;DHT22;9530;48.930;9.526;2023-02-01T11:31:14;6.50;99.90
18805;DHT22;9530;48.930;9.526;2023-02-01T11:33:48;6.60;99.90
18805;DHT22;9530;48.930;9.526;2023-02-01T11:36:16;6.60;99.90
18805;DHT22;9530;48.930;9.526;2023-02-01T11:38:47;6.60;99.90
18805;DHT22;9530;48.930;9.526;2023-02-01T11:41:21;6.60;99.90
18805;DHT22;9530;48.930;9.526;2023-02-01T11:43:55;6.50;99.90
18805;DHT22;9530;48.930;9.526;2023-02-01T11:46:27;6.60;99.90
18805;DHT22;9530;48.930;9.526;2023-02-01T11:48:56;6.50;99.90
18805;DHT22;9530;48.930;9.526;2023-02-01T11:51:38;6.60;99.90
18805;DHT22;9530;48.930;9.526;2023-02-01T11:54:22;6.50;99.90
18805;DHT22;9530;48.930;9.526;2023-02-01T11:57:01;6.40;99.90
18805;DHT22;9530;48.930;9.526;2023-02-01T11:59:54;6.50;99.90
18805;DHT22;9530;48.930;9.526;2023-02-01T12:02:41;6.40;99.90
18805;DHT22;9530;48.930;9.526;2023-02-01T12:05:20;6.50;99.90
18805;DHT22;9530;48.930;9.526;2023-02-01T12:08:02;6.40;99.90
18805;DHT22;9530;48.930;9.526;2023-02-01T12:10:42;6.50;99.90
18805;DHT22;9530;48.930;9.526;2023-02-01T12:13:21;6.60;99.90
18805;DHT22;9530;48.930;9.526;2023-02-01T12:16:05;6.60;99.90
18805;DHT22;9530;48.930;9.526;2023-02-01T12:18:57;6.70;99.90
18805;DHT22;9530;48.930;9.526;2023-02-01T12:21:35;6.70;99.90
18805;DHT22;9530;48.930;9.526;2023-02-01T12:24:18;6.70;99.90
18805;DHT22;9530;48.930;9.526;2023-02-01T12:26:56;6.70;99.90
18805;DHT22;9530;48.930;9.526;2023-02-01T12:29:35;6.70;99.90
18805;DHT22;9530;48.930;9.526;2023-02-01T12:32:14;6.60;99.90
18805;DHT22;9530;48.930;9.526;2023-02-01T12:35:00;6.60;99.90
18805;DHT22;9530;48.930;9.526;2023-02-01T12:37:48;6.60;99.90
18805;DHT22;9530;48.930;9.526;2023-02-01T12:40:28;6.50;99.90
18805;DHT22;9530;48.930;9.526;2023-02-01T12:43:01;6.60;99.90
18805;DHT22;9530;48.930;9.526;2023-02-01T12:45:33;6.50;99.90
18805;DHT22;9530;48.930;9.526;2023-02-01T12:50:52;6.40;99.90
18805;DHT22;9530;48.930;9.526;2023-02-01T12:53:23;6.30;99.90
18805;DHT22;9530;48.930;9.526;2023-02-01T12:55:53;6.40;99.90
18805;DHT22;9530;48.930;9.526;2023-02-01T12:58:24;6.40;99.90
18805;DHT22;9530;48.930;9.526;2023-02-01T13:00:57;6.40;99.90
18805;DHT22;9530;48.930;9.526;2023-02-01T13:03:34;6.40;99.90
18805;DHT22;9530;48.930;9.526;2023-02-01T13:06:07;6.40;99.90
18805;DHT22;9530;48.930;9.526;2023-02-01T13:08:40;6.40;99.90
18805;DHT22;9530;48.930;9.526;2023-02-01T13:11:12;6.40;99.90
18805;DHT22;9530;48.930;9.526;2023-02-01T13:13:46;6.40;99.90
18805;DHT22;9530;48.930;9.526;2023-02-01T13:16:16;6.40;99.90
18805;DHT22;9530;48.930;9.526;2023-02-01T13:18:51;6.40;99.90
18805;DHT22;9530;48.930;9.526;2023-02-01T13:21:21;6.40;99.90
18805;DHT22;9530;48.930;9.526;2023-02-01T13:23:50;6.40;99.90
18805;DHT22;9530;48.930;9.526;2023-02-01T13:26:18;6.50;99.90
18805;DHT22;9530;48.930;9.526;2023-02-01T13:28:47;6.50;99.90
18805;DHT22;9530;48.930;9.526;2023-02-01T13:31:50;6.50;99.90
18805;DHT22;9530;48.930;9.526;2023-02-01T13:34:49;6.40;99.90
18805;DHT22;9530;48.930;9.526;2023-02-01T13:37:31;6.40;99.90
18805;DHT22;9530;48.930;9.526;2023-02-01T13:40:24;6.30;99.90
18805;DHT22;9530;48.930;9.526;2023-02-01T13:42:56;6.30;99.90
18805;DHT22;9530;48.930;9.526;2023-02-01T13:45:26;6.20;99.90
18805;DHT22;9530;48.930;9.526;2023-02-01T13:47:55;6.20;99.90
18805;DHT22;9530;48.930;9.526;2023-02-01T13:50:27;6.20;99.90
18805;DHT22;9530;48.930;9.526;2023-02-01T13:52:57;6.20;99.90
18805;DHT22;9530;48.930;9.526;2023-02-01T13:55:35;6.20;99.90
18805;DHT22;9530;48.930;9.526;2023-02-01T13:58:14;6.30;99.90
18805;DHT22;9530;48.930;9.526;2023-02-01T14:00:42;6.30;99.90
18805;DHT22;9530;48.930;9.526;2023-02-01T14:03:18;6.30;99.90
18805;DHT22;9530;48.930;9.526;2023-02-01T14:06:01;6.30;99.90
18805;DHT22;9530;48.930;9.526;2023-02-01T14:08:46;6.30;99.90
18805;DHT22;9530;48.930;9.526;2023-02-01T14:11:40;6.30;99.90
18805;DHT22;9530;48.930;9.526;2023-02-01T14:17:39;6.20;99.90
18805;DHT22;9530;48.930;9.526;2023-02-01T14:23:19;6.30;99.90
18805;DHT22;9530;48.930;9.526;2023-02-01T14:25:48;6.30;99.90
18805;DHT22;9530;48.930;9.526;2023-02-01T14:28:26;6.30;99.90
18805;DHT22;9530;48.930;9.526;2023-02-01T14:30:56;6.30;99.90
18805;DHT22;9530;48.930;9.526;2023-02-01T14:33:26;6.30;99.90
18805;DHT22;9530;48.930;9.526;2023-02-01T14:36:02;6.30;99.90
18805;DHT22;9530;48.930;9.526;2023-02-01T14:38:31;6.30;99.90
18805;DHT22;9530;48.930;9.526;2023-02-01T14:41:16;6.30;99.90
18805;DHT22;9530;48.930;9.526;2023-02-01T14:44:21;6.20;99.90
18805;DHT22;9530;48.930;9.526;2023-02-01T14:47:31;6.20;99.90
18805;DHT22;9530;48.930;9.526;2023-02-01T14:50:17;6.10;99.90
18805;DHT22;9530;48.930;9.526;2023-02-01T14:52:47;6.10;99.90
18805;DHT22;9530;48.930;9.526;2023-02-01T14:55:25;6.10;99.90
18805;DHT22;9530;48.930;9.526;2023-02-01T14:57:55;6.00;99.90
18805;DHT22;9530;48.930;9.526;2023-02-01T15:00:25;6.00;99.90
18805;DHT22;9530;48.930;9.526;2023-02-01T15:02:55;5.90;99.90
18805;DHT22;9530;48.930;9.526;2023-02-01T15:05:29;6.00;99.90
18805;DHT22;9530;48.930;9.526;2023-02-01T15:08:00;5.90;99.90
18805;DHT22;9530;48.930;9.526;2023-02-01T15:10:32;5.90;99.90
18805;DHT22;9530;48.930;9.526;2023-02-01T15:13:05;6.00;99.90
18805;DHT22;9530;48.930;9.526;2023-02-01T15:15:32;6.00;99.90
18805;DHT22;9530;48.930;9.526;2023-02-01T15:18:01;6.00;99.90
18805;DHT22;9530;48.930;9.526;2023-02-01T15:20:30;6.00;99.90
18805;DHT22;9530;48.930;9.526;2023-02-01T15:22:59;6.00;99.90
18805;DHT22;9530;48.930;9.526;2023-02-01T15:25:29;6.00;99.90
18805;DHT22;9530;48.930;9.526;2023-02-01T15:27:57;6.00;99.90
18805;DHT22;9530;48.930;9.526;2023-02-01T15:30:27;6.00;99.90
18805;DHT22;9530;48.930;9.526;2023-02-01T15:33:05;6.00;99.90
18805;DHT22;9530;48.930;9.526;2023-02-01T15:35:38;5.90;99.90
18805;DHT22;9530;48.930;9.526;2023-02-01T15:38:34;6.00;99.90
18805;DHT22;9530;48.930;9.526;2023-02-01T15:41:04;6.00;99.90
18805;DHT22;9530;48.930;9.526;2023-02-01T15:43:35;6.00;99.90
18805;DHT22;9530;48.930;9.526;2023-02-01T15:46:08;6.00;99.90
18805;DHT22;9530;48.930;9.526;2023-02-01T15:48:39;6.00;99.90
18805;DHT22;9530;48.930;9.526;2023-02-01T15:51:14;6.00;99.90
18805;DHT22;9530;48.930;9.526;2023-02-01T15:53:51;6.00;99.90
18805;DHT22;9530;48.930;9.526;2023-02-01T15:56:24;6.00;99.90
18805;DHT22;9530;48.930;9.526;2023-02-01T15:58:54;6.00;99.90
18805;DHT22;9530;48.930;9.526;2023-02-01T16:01:22;6.00;99.90
18805;DHT22;9530;48.930;9.526;2023-02-01T16:03:49;6.00;99.90
18805;DHT22;9530;48.930;9.526;2023-02-01T16:06:29;6.10;99.90
18805;DHT22;9530;48.930;9.526;2023-02-01T16:09:01;6.10;99.90
18805;DHT22;9530;48.930;9.526;2023-02-01T16:11:30;6.10;99.90
18805;DHT22;9530;48.930;9.526;2023-02-01T16:13:59;6.10;99.90
18805;DHT22;9530;48.930;9.526;2023-02-01T16:16:28;6.10;99.90
18805;DHT22;9530;48.930;9.526;2023-02-01T16:18:55;6.10;99.90
18805;DHT22;9530;48.930;9.526;2023-02-01T16:21:22;6.10;99.90
18805;DHT22;9530;48.930;9.526;2023-02-01T16:23:50;6.10;99.90
18805;DHT22;9530;48.930;9.526;2023-02-01T16:26:17;6.10;99.90
18805;DHT22;9530;48.930;9.526;2023-02-01T16:28:44;6.10;99.90
18805;DHT22;9530;48.930;9.526;2023-02-01T16:31:14;6.10;99.90
18805;DHT22;9530;48.930;9.526;2023-02-01T16:33:48;6.10;99.90
18805;DHT22;9530;48.930;9.526;2023-02-01T16:36:15;6.10;99.90
18805;DHT22;9530;48.930;9.526;2023-02-01T16:38:42;6.10;99.90
18805;DHT22;9530;48.930;9.526;2023-02-01T16:41:12;6.10;99.90
18805;DHT22;9530;48.930;9.526;2023-02-01T16:43:40;6.00;99.90